sensor_id;sensor_type;location;lat;lon;timestamp;P1;durP1;ratioP1;P2;durP2;ratioP2
39434;SDS011;66825;51.880;-0.518;2023-02-28T00:00:31;1.67;;;0.90;;
39434;SDS011;66825;51.880;-0.518;2023-02-28T00:02:58;1.67;;;1.05;;
39434;SDS011;66825;51.880;-0.518;2023-02-28T00:05:24;2.17;;;1.10;;
39434;SDS011;66825;51.880;-0.518;2023-02-28T00:07:50;2.22;;;0.82;;
39434;SDS011;66825;51.880;-0.518;2023-02-28T00:10:18;1.60;;;0.90;;
39434;SDS011;66825;51.880;-0.518;2023-02-28T00:12:54;2.20;;;1.00;;
39434;SDS011;66825;51.880;-0.518;2023-02-28T00:15:22;2.13;;;1.13;;
39434;SDS011;66825;51.880;-0.518;2023-02-28T00:17:48;1.67;;;0.90;;
39434;SDS011;66825;51.880;-0.518;2023-02-28T00:20:14;2.10;;;1.00;;
39434;SDS011;66825;51.880;-0.518;2023-02-28T00:22:44;1.92;;;1.20;;
39434;SDS011;66825;51.880;-0.518;2023-02-28T00:25:15;1.60;;;1.02;;
39434;SDS011;66825;51.880;-0.518;2023-02-28T00:27:43;2.28;;;1.00;;
39434;SDS011;66825;51.880;-0.518;2023-02-28T00:30:10;1.38;;;1.00;;
39434;SDS011;66825;51.880;-0.518;2023-02-28T00:32:37;1.25;;;0.80;;
39434;SDS011;66825;51.880;-0.518;2023-02-28T00:35:04;1.48;;;0.90;;
39434;SDS011;66825;51.880;-0.518;2023-02-28T00:37:30;1.50;;;0.93;;
39434;SDS011;66825;51.880;-0.518;2023-02-28T00:39:56;1.42;;;0.77;;
39434;SDS011;66825;51.880;-0.518;2023-02-28T00:42:22;2.00;;;1.05;;
39434;SDS011;66825;51.880;-0.518;2023-02-28T00:44:47;1.35;;;0.90;;
39434;SDS011;66825;51.880;-0.518;2023-02-28T00:47:13;1.63;;;1.10;;
39434;SDS011;66825;51.880;-0.518;2023-02-28T00:49:39;2.00;;;0.90;;
39434;SDS011;66825;51.880;-0.518;2023-02-28T00:52:05;1.80;;;0.90;;
39434;SDS011;66825;51.880;-0.518;2023-02-28T00:54:30;1.70;;;0.98;;
39434;SDS011;66825;51.880;-0.518;2023-02-28T00:56:56;1.70;;;1.00;;
39434;SDS011;66825;51.880;-0.518;2023-02-28T00:59:21;1.40;;;0.90;;
39434;SDS011;66825;51.880;-0.518;2023-02-28T01:01:47;1.75;;;1.05;;
39434;SDS011;66825;51.880;-0.518;2023-02-28T01:04:13;1.70;;;1.02;;
39434;SDS011;66825;51.880;-0.518;2023-02-28T01:06:39;1.88;;;0.90;;
39434;SDS011;66825;51.880;-0.518;2023-02-28T01:09:05;1.58;;;1.00;;
39434;SDS011;66825;51.880;-0.518;2023-02-28T01:11:32;1.42;;;1.00;;
39434;SDS011;66825;51.880;-0.518;2023-02-28T01:13:58;1.35;;;0.80;;
39434;SDS011;66825;51.880;-0.518;2023-02-28T01:16:24;1.30;;;0.95;;
39434;SDS011;66825;51.880;-0.518;2023-02-28T01:18:50;1.40;;;0.98;;
39434;SDS011;66825;51.880;-0.518;2023-02-28T01:21:16;1.70;;;1.10;;
39434;SDS011;66825;51.880;-0.518;2023-02-28T01:23:43;1.55;;;1.00;;
39434;SDS011;66825;51.880;-0.518;2023-02-28T01:26:12;3.15;;;1.08;;
39434;SDS011;66825;51.880;-0.518;2023-02-28T01:28:45;1.55;;;0.85;;
39434;SDS011;66825;51.880;-0.518;2023-02-28T01:31:11;2.78;;;1.02;;
39434;SDS011;66825;51.880;-0.518;2023-02-28T01:33:37;2.05;;;1.00;;
39434;SDS011;66825;51.880;-0.518;2023-02-28T01:36:08;1.75;;;1.17;;
39434;SDS011;66825;51.880;-0.518;2023-02-28T01:38:35;1.50;;;0.90;;
39434;SDS011;66825;51.880;-0.518;2023-02-28T01:41:01;2.05;;;0.90;;
39434;SDS011;66825;51.880;-0.518;2023-02-28T01:43:32;1.70;;;1.00;;
39434;SDS011;66825;51.880;-0.518;2023-02-28T01:46:10;1.20;;;0.82;;
39434;SDS011;66825;51.880;-0.518;2023-02-28T01:48:38;1.45;;;0.82;;
39434;SDS011;66825;51.880;-0.518;2023-02-28T01:51:08;1.40;;;0.90;;
39434;SDS011;66825;51.880;-0.518;2023-02-28T01:53:39;1.60;;;1.05;;
39434;SDS011;66825;51.880;-0.518;2023-02-28T01:56:11;1.50;;;0.90;;
39434;SDS011;66825;51.880;-0.518;2023-02-28T01:58:46;1.35;;;0.85;;
39434;SDS011;66825;51.880;-0.518;2023-02-28T02:01:12;1.92;;;0.93;;
39434;SDS011;66825;51.880;-0.518;2023-02-28T02:03:47;1.67;;;0.90;;
39434;SDS011;66825;51.880;-0.518;2023-02-28T02:06:21;1.27;;;0.77;;
39434;SDS011;66825;51.880;-0.518;2023-02-28T02:08:48;1.40;;;0.80;;
39434;SDS011;66825;51.880;-0.518;2023-02-28T02:11:13;2.45;;;1.10;;
39434;SDS011;66825;51.880;-0.518;2023-02-28T02:13:54;1.42;;;0.80;;
39434;SDS011;66825;51.880;-0.518;2023-02-28T02:27:05;1.77;;;1.05;;
39434;SDS011;66825;51.880;-0.518;2023-02-28T02:32:25;1.75;;;1.02;;
39434;SDS011;66825;51.880;-0.518;2023-02-28T02:37:49;1.55;;;0.90;;
39434;SDS011;66825;51.880;-0.518;2023-02-28T02:40:20;1.77;;;0.90;;
39434;SDS011;66825;51.880;-0.518;2023-02-28T02:42:56;1.63;;;0.75;;
39434;SDS011;66825;51.880;-0.518;2023-02-28T02:48:24;1.38;;;0.85;;
39434;SDS011;66825;51.880;-0.518;2023-02-28T02:50:54;1.95;;;1.02;;
39434;SDS011;66825;51.880;-0.518;2023-02-28T02:53:24;2.50;;;1.20;;
39434;SDS011;66825;51.880;-0.518;2023-02-28T02:55:58;1.50;;;1.00;;
39434;SDS011;66825;51.880;-0.518;2023-02-28T02:58:28;2.08;;;1.05;;
39434;SDS011;66825;51.880;-0.518;2023-02-28T03:00:58;1.40;;;0.80;;
39434;SDS011;66825;51.880;-0.518;2023-02-28T03:03:26;1.45;;;0.93;;
39434;SDS011;66825;51.880;-0.518;2023-02-28T03:05:58;2.20;;;1.10;;
39434;SDS011;66825;51.880;-0.518;2023-02-28T03:10:52;1.80;;;1.00;;
39434;SDS011;66825;51.880;-0.518;2023-02-28T03:19:02;2.35;;;1.10;;
39434;SDS011;66825;51.880;-0.518;2023-02-28T03:21:39;1.67;;;0.88;;
39434;SDS011;66825;51.880;-0.518;2023-02-28T03:26:45;1.65;;;0.85;;
39434;SDS011;66825;51.880;-0.518;2023-02-28T03:29:42;1.40;;;0.98;;
39434;SDS011;66825;51.880;-0.518;2023-02-28T03:35:02;1.75;;;1.08;;
39434;SDS011;66825;51.880;-0.518;2023-02-28T03:37:35;1.40;;;0.82;;
39434;SDS011;66825;51.880;-0.518;2023-02-28T03:40:07;1.80;;;0.80;;
39434;SDS011;66825;51.880;-0.518;2023-02-28T03:42:37;1.15;;;0.80;;
39434;SDS011;66825;51.880;-0.518;2023-02-28T03:45:19;1.42;;;0.90;;
39434;SDS011;66825;51.880;-0.518;2023-02-28T03:47:53;1.75;;;0.90;;
39434;SDS011;66825;51.880;-0.518;2023-02-28T03:50:44;1.40;;;0.95;;
39434;SDS011;66825;51.880;-0.518;2023-02-28T03:53:14;2.17;;;0.88;;
39434;SDS011;66825;51.880;-0.518;2023-02-28T03:55:42;1.73;;;1.08;;
39434;SDS011;66825;51.880;-0.518;2023-02-28T04:01:14;1.10;;;0.80;;
39434;SDS011;66825;51.880;-0.518;2023-02-28T04:03:46;1.17;;;0.70;;
39434;SDS011;66825;51.880;-0.518;2023-02-28T04:06:18;1.77;;;0.90;;
39434;SDS011;66825;51.880;-0.518;2023-02-28T04:08:46;2.42;;;1.30;;
39434;SDS011;66825;51.880;-0.518;2023-02-28T04:11:20;2.08;;;1.00;;
39434;SDS011;66825;51.880;-0.518;2023-02-28T04:13:48;1.67;;;0.98;;
39434;SDS011;66825;51.880;-0.518;2023-02-28T04:16:13;1.45;;;0.77;;
39434;SDS011;66825;51.880;-0.518;2023-02-28T04:18:39;1.38;;;0.80;;
39434;SDS011;66825;51.880;-0.518;2023-02-28T04:21:05;1.45;;;0.82;;
39434;SDS011;66825;51.880;-0.518;2023-02-28T04:23:31;1.63;;;1.17;;
39434;SDS011;66825;51.880;-0.518;2023-02-28T04:25:57;1.55;;;0.90;;
39434;SDS011;66825;51.880;-0.518;2023-02-28T04:28:22;1.55;;;1.17;;
39434;SDS011;66825;51.880;-0.518;2023-02-28T04:30:54;1.40;;;1.00;;
39434;SDS011;66825;51.880;-0.518;2023-02-28T04:33:20;1.08;;;0.75;;
39434;SDS011;66825;51.880;-0.518;2023-02-28T04:35:45;1.20;;;0.93;;
39434;SDS011;66825;51.880;-0.518;2023-02-28T04:38:11;1.85;;;1.10;;
39434;SDS011;66825;51.880;-0.518;2023-02-28T04:40:36;1.52;;;0.80;;
39434;SDS011;66825;51.880;-0.518;2023-02-28T04:43:02;1.75;;;0.80;;
39434;SDS011;66825;51.880;-0.518;2023-02-28T04:45:28;1.23;;;0.88;;
39434;SDS011;66825;51.880;-0.518;2023-02-28T04:47:57;1.70;;;1.00;;
39434;SDS011;66825;51.880;-0.518;2023-02-28T04:50:23;2.05;;;1.15;;
39434;SDS011;66825;51.880;-0.518;2023-02-28T04:52:48;1.70;;;0.95;;
39434;SDS011;66825;51.880;-0.518;2023-02-28T04:55:14;1.58;;;0.88;;
39434;SDS011;66825;51.880;-0.518;2023-02-28T04:57:39;1.70;;;1.10;;
39434;SDS011;66825;51.880;-0.518;2023-02-28T05:00:08;1.38;;;0.80;;
39434;SDS011;66825;51.880;-0.518;2023-02-28T05:02:36;1.35;;;0.90;;
39434;SDS011;66825;51.880;-0.518;2023-02-28T05:05:03;1.17;;;0.70;;
39434;SDS011;66825;51.880;-0.518;2023-02-28T05:07:29;2.05;;;1.10;;
39434;SDS011;66825;51.880;-0.518;2023-02-28T05:09:54;1.60;;;1.00;;
39434;SDS011;66825;51.880;-0.518;2023-02-28T05:12:20;1.20;;;0.90;;
39434;SDS011;66825;51.880;-0.518;2023-02-28T05:14:45;1.48;;;0.98;;
39434;SDS011;66825;51.880;-0.518;2023-02-28T05:17:10;1.98;;;0.98;;
39434;SDS011;66825;51.880;-0.518;2023-02-28T05:19:36;1.35;;;0.80;;
39434;SDS011;66825;51.880;-0.518;2023-02-28T05:22:01;1.20;;;1.00;;
39434;SDS011;66825;51.880;-0.518;2023-02-28T05:24:27;1.33;;;0.90;;
39434;SDS011;66825;51.880;-0.518;2023-02-28T05:26:53;1.40;;;1.00;;
39434;SDS011;66825;51.880;-0.518;2023-02-28T05:29:19;1.52;;;0.90;;
39434;SDS011;66825;51.880;-0.518;2023-02-28T05:31:45;1.30;;;1.05;;
39434;SDS011;66825;51.880;-0.518;2023-02-28T05:34:11;1.85;;;1.08;;
39434;SDS011;66825;51.880;-0.518;2023-02-28T05:36:37;1.40;;;1.00;;
39434;SDS011;66825;51.880;-0.518;2023-02-28T05:39:07;1.35;;;0.90;;
39434;SDS011;66825;51.880;-0.518;2023-02-28T05:41:37;1.50;;;1.00;;
39434;SDS011;66825;51.880;-0.518;2023-02-28T05:44:06;1.17;;;0.70;;
39434;SDS011;66825;51.880;-0.518;2023-02-28T05:46:32;1.40;;;0.90;;
39434;SDS011;66825;51.880;-0.518;2023-02-28T05:48:57;1.70;;;1.05;;
39434;SDS011;66825;51.880;-0.518;2023-02-28T05:51:25;1.30;;;1.05;;
39434;SDS011;66825;51.880;-0.518;2023-02-28T05:53:50;2.08;;;1.10;;
39434;SDS011;66825;51.880;-0.518;2023-02-28T05:56:16;1.52;;;1.02;;
39434;SDS011;66825;51.880;-0.518;2023-02-28T05:58:41;1.23;;;1.00;;
39434;SDS011;66825;51.880;-0.518;2023-02-28T06:03:59;1.33;;;1.00;;
39434;SDS011;66825;51.880;-0.518;2023-02-28T06:06:26;1.42;;;0.90;;
39434;SDS011;66825;51.880;-0.518;2023-02-28T06:08:52;2.05;;;1.00;;
39434;SDS011;66825;51.880;-0.518;2023-02-28T06:11:17;1.55;;;1.10;;
39434;SDS011;66825;51.880;-0.518;2023-02-28T06:13:44;1.35;;;1.00;;
39434;SDS011;66825;51.880;-0.518;2023-02-28T06:16:10;1.10;;;0.90;;
39434;SDS011;66825;51.880;-0.518;2023-02-28T06:18:36;1.10;;;0.82;;
39434;SDS011;66825;51.880;-0.518;2023-02-28T06:21:02;1.73;;;1.17;;
39434;SDS011;66825;51.880;-0.518;2023-02-28T06:23:28;1.10;;;0.85;;
39434;SDS011;66825;51.880;-0.518;2023-02-28T06:25:53;1.40;;;1.20;;
39434;SDS011;66825;51.880;-0.518;2023-02-28T06:28:22;1.50;;;0.98;;
39434;SDS011;66825;51.880;-0.518;2023-02-28T06:30:48;0.95;;;0.85;;
39434;SDS011;66825;51.880;-0.518;2023-02-28T06:33:13;1.83;;;1.10;;
39434;SDS011;66825;51.880;-0.518;2023-02-28T06:35:38;1.73;;;1.00;;
39434;SDS011;66825;51.880;-0.518;2023-02-28T06:38:04;1.63;;;1.20;;
39434;SDS011;66825;51.880;-0.518;2023-02-28T06:40:30;1.45;;;1.00;;
39434;SDS011;66825;51.880;-0.518;2023-02-28T06:42:59;1.38;;;1.08;;
39434;SDS011;66825;51.880;-0.518;2023-02-28T06:45:24;1.60;;;1.15;;
39434;SDS011;66825;51.880;-0.518;2023-02-28T06:47:51;1.80;;;1.30;;
39434;SDS011;66825;51.880;-0.518;2023-02-28T06:50:17;1.35;;;1.02;;
39434;SDS011;66825;51.880;-0.518;2023-02-28T06:52:45;1.58;;;0.93;;
39434;SDS011;66825;51.880;-0.518;2023-02-28T06:55:11;1.02;;;0.90;;
39434;SDS011;66825;51.880;-0.518;2023-02-28T06:57:38;1.20;;;1.00;;
39434;SDS011;66825;51.880;-0.518;2023-02-28T07:00:07;1.30;;;0.93;;
39434;SDS011;66825;51.880;-0.518;2023-02-28T07:02:37;1.95;;;1.30;;
39434;SDS011;66825;51.880;-0.518;2023-02-28T07:05:03;1.40;;;1.05;;
39434;SDS011;66825;51.880;-0.518;2023-02-28T07:07:29;1.23;;;0.90;;
39434;SDS011;66825;51.880;-0.518;2023-02-28T07:09:55;1.52;;;1.10;;
39434;SDS011;66825;51.880;-0.518;2023-02-28T07:12:21;1.45;;;1.00;;
39434;SDS011;66825;51.880;-0.518;2023-02-28T07:14:47;1.17;;;1.00;;
39434;SDS011;66825;51.880;-0.518;2023-02-28T07:17:12;1.33;;;1.05;;
39434;SDS011;66825;51.880;-0.518;2023-02-28T07:19:38;1.27;;;1.00;;
39434;SDS011;66825;51.880;-0.518;2023-02-28T07:22:04;1.08;;;0.95;;
39434;SDS011;66825;51.880;-0.518;2023-02-28T07:24:30;1.30;;;1.00;;
39434;SDS011;66825;51.880;-0.518;2023-02-28T07:26:56;1.60;;;1.20;;
39434;SDS011;66825;51.880;-0.518;2023-02-28T07:29:21;1.55;;;1.08;;
39434;SDS011;66825;51.880;-0.518;2023-02-28T07:31:47;1.27;;;1.13;;
39434;SDS011;66825;51.880;-0.518;2023-02-28T07:34:13;1.65;;;1.00;;
39434;SDS011;66825;51.880;-0.518;2023-02-28T07:36:38;1.40;;;1.00;;
39434;SDS011;66825;51.880;-0.518;2023-02-28T07:39:04;1.27;;;0.95;;
39434;SDS011;66825;51.880;-0.518;2023-02-28T07:41:30;1.50;;;1.05;;
39434;SDS011;66825;51.880;-0.518;2023-02-28T07:43:58;1.30;;;1.02;;
39434;SDS011;66825;51.880;-0.518;2023-02-28T07:46:24;1.50;;;1.13;;
39434;SDS011;66825;51.880;-0.518;2023-02-28T07:48:51;1.52;;;1.10;;
39434;SDS011;66825;51.880;-0.518;2023-02-28T07:51:16;1.63;;;1.10;;
39434;SDS011;66825;51.880;-0.518;2023-02-28T07:53:42;1.95;;;1.10;;
39434;SDS011;66825;51.880;-0.518;2023-02-28T07:56:08;1.48;;;0.80;;
39434;SDS011;66825;51.880;-0.518;2023-02-28T07:58:33;1.27;;;1.00;;
39434;SDS011;66825;51.880;-0.518;2023-02-28T08:01:09;1.00;;;0.80;;
39434;SDS011;66825;51.880;-0.518;2023-02-28T08:03:36;1.55;;;0.90;;
39434;SDS011;66825;51.880;-0.518;2023-02-28T08:06:03;1.15;;;0.90;;
39434;SDS011;66825;51.880;-0.518;2023-02-28T08:08:30;1.10;;;0.95;;
39434;SDS011;66825;51.880;-0.518;2023-02-28T08:11:02;1.17;;;0.90;;
39434;SDS011;66825;51.880;-0.518;2023-02-28T08:13:28;1.58;;;0.90;;
39434;SDS011;66825;51.880;-0.518;2023-02-28T08:15:55;1.42;;;0.93;;
39434;SDS011;66825;51.880;-0.518;2023-02-28T08:18:21;1.10;;;0.88;;
39434;SDS011;66825;51.880;-0.518;2023-02-28T08:20:47;1.60;;;1.10;;
39434;SDS011;66825;51.880;-0.518;2023-02-28T08:23:12;1.50;;;1.00;;
39434;SDS011;66825;51.880;-0.518;2023-02-28T08:25:38;1.20;;;0.80;;
39434;SDS011;66825;51.880;-0.518;2023-02-28T08:28:04;1.10;;;0.90;;
39434;SDS011;66825;51.880;-0.518;2023-02-28T08:30:29;1.02;;;0.70;;
39434;SDS011;66825;51.880;-0.518;2023-02-28T08:32:55;1.52;;;0.90;;
39434;SDS011;66825;51.880;-0.518;2023-02-28T08:35:20;1.10;;;0.85;;
39434;SDS011;66825;51.880;-0.518;2023-02-28T08:37:49;1.25;;;0.98;;
39434;SDS011;66825;51.880;-0.518;2023-02-28T08:40:15;1.65;;;1.00;;
39434;SDS011;66825;51.880;-0.518;2023-02-28T08:42:46;1.08;;;0.80;;
39434;SDS011;66825;51.880;-0.518;2023-02-28T08:45:12;1.60;;;0.80;;
39434;SDS011;66825;51.880;-0.518;2023-02-28T08:47:39;1.13;;;0.82;;
39434;SDS011;66825;51.880;-0.518;2023-02-28T08:50:04;1.25;;;0.93;;
39434;SDS011;66825;51.880;-0.518;2023-02-28T08:52:30;0.82;;;0.63;;
39434;SDS011;66825;51.880;-0.518;2023-02-28T08:54:56;0.80;;;0.70;;
39434;SDS011;66825;51.880;-0.518;2023-02-28T08:57:21;0.93;;;0.70;;
39434;SDS011;66825;51.880;-0.518;2023-02-28T08:59:47;1.15;;;0.80;;
39434;SDS011;66825;51.880;-0.518;2023-02-28T09:02:13;1.30;;;0.70;;
39434;SDS011;66825;51.880;-0.518;2023-02-28T09:04:39;2.53;;;1.27;;
39434;SDS011;66825;51.880;-0.518;2023-02-28T09:07:06;2.80;;;1.02;;
39434;SDS011;66825;51.880;-0.518;2023-02-28T09:09:31;3.00;;;0.98;;
39434;SDS011;66825;51.880;-0.518;2023-02-28T09:11:57;1.48;;;0.85;;
39434;SDS011;66825;51.880;-0.518;2023-02-28T09:14:22;5.10;;;1.50;;
39434;SDS011;66825;51.880;-0.518;2023-02-28T09:16:48;8.55;;;2.38;;
39434;SDS011;66825;51.880;-0.518;2023-02-28T09:19:13;9.55;;;1.92;;
39434;SDS011;66825;51.880;-0.518;2023-02-28T09:21:39;5.30;;;1.88;;
39434;SDS011;66825;51.880;-0.518;2023-02-28T09:24:05;8.20;;;1.67;;
39434;SDS011;66825;51.880;-0.518;2023-02-28T09:26:31;4.88;;;1.60;;
39434;SDS011;66825;51.880;-0.518;2023-02-28T09:28:56;5.07;;;1.80;;
39434;SDS011;66825;51.880;-0.518;2023-02-28T09:31:24;6.70;;;1.70;;
39434;SDS011;66825;51.880;-0.518;2023-02-28T09:33:52;4.85;;;1.63;;
39434;SDS011;66825;51.880;-0.518;2023-02-28T09:36:18;7.50;;;1.80;;
39434;SDS011;66825;51.880;-0.518;2023-02-28T09:38:44;6.72;;;1.70;;
39434;SDS011;66825;51.880;-0.518;2023-02-28T09:41:19;7.70;;;1.60;;
39434;SDS011;66825;51.880;-0.518;2023-02-28T09:43:47;5.97;;;1.80;;
39434;SDS011;66825;51.880;-0.518;2023-02-28T09:49:12;6.25;;;1.73;;
39434;SDS011;66825;51.880;-0.518;2023-02-28T09:51:56;5.68;;;1.70;;
39434;SDS011;66825;51.880;-0.518;2023-02-28T09:54:28;9.82;;;2.28;;
39434;SDS011;66825;51.880;-0.518;2023-02-28T09:56:57;7.65;;;1.95;;
39434;SDS011;66825;51.880;-0.518;2023-02-28T09:59:33;7.80;;;2.20;;
39434;SDS011;66825;51.880;-0.518;2023-02-28T10:05:12;8.65;;;1.80;;
39434;SDS011;66825;51.880;-0.518;2023-02-28T10:07:58;9.60;;;2.10;;
39434;SDS011;66825;51.880;-0.518;2023-02-28T10:12:59;12.32;;;2.30;;
39434;SDS011;66825;51.880;-0.518;2023-02-28T10:15:28;13.18;;;3.70;;
39434;SDS011;66825;51.880;-0.518;2023-02-28T10:17:58;11.95;;;3.30;;
39434;SDS011;66825;51.880;-0.518;2023-02-28T10:20:27;7.63;;;2.35;;
39434;SDS011;66825;51.880;-0.518;2023-02-28T10:25:35;7.45;;;2.33;;
39434;SDS011;66825;51.880;-0.518;2023-02-28T10:28:08;10.93;;;2.95;;
39434;SDS011;66825;51.880;-0.518;2023-02-28T10:30:42;9.32;;;2.35;;
39434;SDS011;66825;51.880;-0.518;2023-02-28T10:33:27;7.25;;;2.28;;
39434;SDS011;66825;51.880;-0.518;2023-02-28T10:35:55;12.45;;;2.25;;
39434;SDS011;66825;51.880;-0.518;2023-02-28T10:38:22;13.65;;;2.42;;
39434;SDS011;66825;51.880;-0.518;2023-02-28T10:41:12;12.75;;;2.85;;
39434;SDS011;66825;51.880;-0.518;2023-02-28T10:43:40;14.40;;;2.63;;
39434;SDS011;66825;51.880;-0.518;2023-02-28T10:51:05;19.80;;;3.45;;
39434;SDS011;66825;51.880;-0.518;2023-02-28T10:53:34;19.60;;;3.80;;
39434;SDS011;66825;51.880;-0.518;2023-02-28T11:01:15;11.32;;;2.92;;
39434;SDS011;66825;51.880;-0.518;2023-02-28T11:03:46;12.70;;;2.47;;
39434;SDS011;66825;51.880;-0.518;2023-02-28T11:06:22;8.02;;;2.60;;
39434;SDS011;66825;51.880;-0.518;2023-02-28T11:08:54;8.10;;;2.50;;
39434;SDS011;66825;51.880;-0.518;2023-02-28T11:11:24;8.40;;;2.73;;
39434;SDS011;66825;51.880;-0.518;2023-02-28T11:13:56;11.45;;;3.15;;
39434;SDS011;66825;51.880;-0.518;2023-02-28T11:16:34;11.68;;;2.97;;
39434;SDS011;66825;51.880;-0.518;2023-02-28T11:19:03;12.35;;;2.70;;
39434;SDS011;66825;51.880;-0.518;2023-02-28T11:21:36;13.48;;;3.45;;
39434;SDS011;66825;51.880;-0.518;2023-02-28T11:26:58;19.65;;;4.00;;
39434;SDS011;66825;51.880;-0.518;2023-02-28T11:29:25;13.77;;;3.63;;
39434;SDS011;66825;51.880;-0.518;2023-02-28T11:32:12;18.25;;;3.88;;
39434;SDS011;66825;51.880;-0.518;2023-02-28T11:34:42;13.77;;;4.22;;
39434;SDS011;66825;51.880;-0.518;2023-02-28T11:37:11;9.40;;;3.00;;
39434;SDS011;66825;51.880;-0.518;2023-02-28T11:58:44;11.18;;;3.00;;
39434;SDS011;66825;51.880;-0.518;2023-02-28T12:06:44;10.50;;;3.08;;
39434;SDS011;66825;51.880;-0.518;2023-02-28T12:09:24;11.57;;;3.30;;
39434;SDS011;66825;51.880;-0.518;2023-02-28T12:12:04;10.18;;;3.22;;
39434;SDS011;66825;51.880;-0.518;2023-02-28T12:28:20;10.70;;;2.80;;
39434;SDS011;66825;51.880;-0.518;2023-02-28T12:30:56;9.32;;;2.53;;
39434;SDS011;66825;51.880;-0.518;2023-02-28T12:33:28;8.95;;;3.10;;
39434;SDS011;66825;51.880;-0.518;2023-02-28T12:36:00;8.80;;;2.70;;
39434;SDS011;66825;51.880;-0.518;2023-02-28T12:39:34;16.83;;;3.50;;
39434;SDS011;66825;51.880;-0.518;2023-02-28T12:41:39;13.93;;;3.58;;
39434;SDS011;66825;51.880;-0.518;2023-02-28T12:47:09;53.70;;;7.05;;
39434;SDS011;66825;51.880;-0.518;2023-02-28T12:49:46;58.75;;;8.68;;
39434;SDS011;66825;51.880;-0.518;2023-02-28T12:52:14;38.38;;;7.38;;
39434;SDS011;66825;51.880;-0.518;2023-02-28T12:55:23;33.28;;;6.38;;
39434;SDS011;66825;51.880;-0.518;2023-02-28T12:57:58;24.42;;;5.45;;
39434;SDS011;66825;51.880;-0.518;2023-02-28T13:00:33;26.17;;;5.07;;
39434;SDS011;66825;51.880;-0.518;2023-02-28T13:03:06;23.95;;;5.35;;
39434;SDS011;66825;51.880;-0.518;2023-02-28T13:10:56;19.23;;;4.88;;
39434;SDS011;66825;51.880;-0.518;2023-02-28T13:13:29;17.83;;;4.65;;
39434;SDS011;66825;51.880;-0.518;2023-02-28T13:16:08;19.00;;;4.88;;
39434;SDS011;66825;51.880;-0.518;2023-02-28T13:18:39;17.00;;;4.50;;
39434;SDS011;66825;51.880;-0.518;2023-02-28T13:21:09;15.93;;;4.20;;
39434;SDS011;66825;51.880;-0.518;2023-02-28T13:29:02;16.85;;;3.63;;
39434;SDS011;66825;51.880;-0.518;2023-02-28T13:34:40;13.38;;;3.38;;
39434;SDS011;66825;51.880;-0.518;2023-02-28T13:39:51;11.40;;;3.13;;
39434;SDS011;66825;51.880;-0.518;2023-02-28T13:47:45;13.98;;;3.65;;
39434;SDS011;66825;51.880;-0.518;2023-02-28T14:00:55;20.67;;;5.20;;
39434;SDS011;66825;51.880;-0.518;2023-02-28T14:06:17;20.02;;;5.00;;
39434;SDS011;66825;51.880;-0.518;2023-02-28T14:09:30;16.15;;;3.53;;
39434;SDS011;66825;51.880;-0.518;2023-02-28T14:11:42;15.90;;;4.50;;
39434;SDS011;66825;51.880;-0.518;2023-02-28T14:14:09;22.42;;;7.68;;
39434;SDS011;66825;51.880;-0.518;2023-02-28T14:17:01;11.38;;;3.63;;
39434;SDS011;66825;51.880;-0.518;2023-02-28T14:19:30;11.80;;;3.47;;
39434;SDS011;66825;51.880;-0.518;2023-02-28T14:38:42;8.95;;;3.63;;
39434;SDS011;66825;51.880;-0.518;2023-02-28T14:41:16;14.57;;;4.18;;
39434;SDS011;66825;51.880;-0.518;2023-02-28T14:43:48;12.38;;;3.58;;
39434;SDS011;66825;51.880;-0.518;2023-02-28T14:46:16;14.55;;;4.63;;
39434;SDS011;66825;51.880;-0.518;2023-02-28T14:48:47;11.30;;;3.45;;
39434;SDS011;66825;51.880;-0.518;2023-02-28T14:51:17;10.27;;;3.13;;
39434;SDS011;66825;51.880;-0.518;2023-02-28T14:53:45;10.02;;;2.85;;
39434;SDS011;66825;51.880;-0.518;2023-02-28T14:56:57;9.13;;;3.20;;
39434;SDS011;66825;51.880;-0.518;2023-02-28T14:59:05;10.20;;;2.92;;
39434;SDS011;66825;51.880;-0.518;2023-02-28T15:01:47;10.45;;;2.85;;
39434;SDS011;66825;51.880;-0.518;2023-02-28T15:04:18;14.90;;;3.78;;
39434;SDS011;66825;51.880;-0.518;2023-02-28T15:15:56;9.85;;;3.67;;
39434;SDS011;66825;51.880;-0.518;2023-02-28T15:21:32;13.27;;;3.28;;
39434;SDS011;66825;51.880;-0.518;2023-02-28T15:24:04;10.15;;;3.22;;
39434;SDS011;66825;51.880;-0.518;2023-02-28T15:26:37;12.93;;;3.50;;
39434;SDS011;66825;51.880;-0.518;2023-02-28T15:29:10;11.38;;;3.28;;
39434;SDS011;66825;51.880;-0.518;2023-02-28T15:31:46;11.77;;;2.83;;
39434;SDS011;66825;51.880;-0.518;2023-02-28T15:34:36;9.88;;;2.90;;
39434;SDS011;66825;51.880;-0.518;2023-02-28T15:40:18;11.88;;;3.70;;
39434;SDS011;66825;51.880;-0.518;2023-02-28T15:48:16;6.53;;;2.47;;
39434;SDS011;66825;51.880;-0.518;2023-02-28T15:50:46;7.47;;;2.42;;
39434;SDS011;66825;51.880;-0.518;2023-02-28T15:53:18;10.32;;;3.20;;
39434;SDS011;66825;51.880;-0.518;2023-02-28T15:55:51;11.13;;;3.20;;
39434;SDS011;66825;51.880;-0.518;2023-02-28T15:58:19;10.18;;;2.60;;
39434;SDS011;66825;51.880;-0.518;2023-02-28T16:00:59;8.50;;;2.72;;
39434;SDS011;66825;51.880;-0.518;2023-02-28T16:03:27;11.70;;;3.17;;
39434;SDS011;66825;51.880;-0.518;2023-02-28T16:06:19;8.35;;;2.63;;
39434;SDS011;66825;51.880;-0.518;2023-02-28T16:08:51;9.52;;;2.80;;
39434;SDS011;66825;51.880;-0.518;2023-02-28T16:11:18;7.10;;;2.47;;
39434;SDS011;66825;51.880;-0.518;2023-02-28T16:13:48;7.83;;;2.83;;
39434;SDS011;66825;51.880;-0.518;2023-02-28T16:16:18;6.82;;;2.10;;
39434;SDS011;66825;51.880;-0.518;2023-02-28T16:18:45;8.02;;;2.53;;
39434;SDS011;66825;51.880;-0.518;2023-02-28T16:21:11;10.85;;;2.65;;
39434;SDS011;66825;51.880;-0.518;2023-02-28T16:23:36;10.25;;;2.50;;
39434;SDS011;66825;51.880;-0.518;2023-02-28T16:26:02;11.82;;;2.88;;
39434;SDS011;66825;51.880;-0.518;2023-02-28T16:28:30;9.30;;;2.53;;
39434;SDS011;66825;51.880;-0.518;2023-02-28T16:31:02;7.03;;;2.30;;
39434;SDS011;66825;51.880;-0.518;2023-02-28T16:33:30;8.35;;;2.50;;
39434;SDS011;66825;51.880;-0.518;2023-02-28T16:35:59;6.93;;;2.33;;
39434;SDS011;66825;51.880;-0.518;2023-02-28T16:38:25;8.20;;;2.40;;
39434;SDS011;66825;51.880;-0.518;2023-02-28T16:40:51;13.73;;;2.20;;
39434;SDS011;66825;51.880;-0.518;2023-02-28T16:43:22;7.53;;;2.00;;
39434;SDS011;66825;51.880;-0.518;2023-02-28T16:45:54;6.60;;;2.47;;
39434;SDS011;66825;51.880;-0.518;2023-02-28T16:48:23;4.97;;;2.15;;
39434;SDS011;66825;51.880;-0.518;2023-02-28T16:50:50;7.93;;;2.42;;
39434;SDS011;66825;51.880;-0.518;2023-02-28T16:53:16;7.50;;;2.50;;
39434;SDS011;66825;51.880;-0.518;2023-02-28T16:55:41;7.13;;;2.30;;
39434;SDS011;66825;51.880;-0.518;2023-02-28T16:58:11;7.13;;;2.00;;
39434;SDS011;66825;51.880;-0.518;2023-02-28T17:00:39;5.35;;;2.00;;
39434;SDS011;66825;51.880;-0.518;2023-02-28T17:03:05;8.00;;;2.30;;
39434;SDS011;66825;51.880;-0.518;2023-02-28T17:05:43;7.28;;;2.20;;
39434;SDS011;66825;51.880;-0.518;2023-02-28T17:08:08;7.40;;;2.05;;
39434;SDS011;66825;51.880;-0.518;2023-02-28T17:10:34;7.45;;;1.90;;
39434;SDS011;66825;51.880;-0.518;2023-02-28T17:13:00;5.45;;;1.80;;
39434;SDS011;66825;51.880;-0.518;2023-02-28T17:15:26;5.18;;;1.90;;
39434;SDS011;66825;51.880;-0.518;2023-02-28T17:17:51;5.03;;;1.88;;
39434;SDS011;66825;51.880;-0.518;2023-02-28T17:20:21;6.85;;;1.63;;
39434;SDS011;66825;51.880;-0.518;2023-02-28T17:22:48;3.35;;;1.45;;
39434;SDS011;66825;51.880;-0.518;2023-02-28T17:25:14;7.78;;;1.77;;
39434;SDS011;66825;51.880;-0.518;2023-02-28T17:27:39;4.22;;;1.70;;
39434;SDS011;66825;51.880;-0.518;2023-02-28T17:30:18;3.75;;;1.80;;
39434;SDS011;66825;51.880;-0.518;2023-02-28T17:32:52;5.32;;;1.83;;
39434;SDS011;66825;51.880;-0.518;2023-02-28T17:35:18;4.93;;;2.03;;
39434;SDS011;66825;51.880;-0.518;2023-02-28T17:37:44;4.68;;;1.60;;
39434;SDS011;66825;51.880;-0.518;2023-02-28T17:40:14;5.20;;;1.60;;